Time;durP1;ratioP1;P1;durP2;ratioP2;P2;SDS_P1;SDS_P2;PMS_P1;PMS_P2;Temp;Humidity;BMP_temperature;BMP_pressure;BME280_temperature;BME280_humidity;BME280_pressure;Samples;Min_cycle;Max_cycle;Signal;HPM_P1;HPM_P2
2021/11/07 00:04:00;;;;;;;127.07;53.45;;;;;;;14.00;100.00;100921.66;5077837;28;20024;-66
2021/11/07 00:06:32;;;;;;;110.38;48.55;;;;;;;14.07;100.00;100928.03;5077976;28;20299;-66
2021/11/07 00:09:25;;;;;;;106.20;50.95;;;;;;;13.99;100.00;100922.66;5074779;28;20351;-69
2021/11/07 00:11:56;;;;;;;114.20;51.40;;;;;;;13.96;100.00;100930.97;5077404;28;20028;-66
2021/11/07 00:14:22;;;;;;;106.88;51.72;;;;;;;14.21;100.00;100923.13;5077719;28;20036;-66
2021/11/07 00:16:48;;;;;;;121.90;54.72;;;;;;;14.22;100.00;100930.97;5078716;28;20028;-68
2021/11/07 00:19:34;;;;;;;119.10;51.67;;;;;;;14.15;100.00;100929.09;5077307;28;20261;-66
2021/11/07 00:24:48;;;;;;;114.97;52.22;;;;;;;14.24;100.00;100925.50;5077993;28;20040;-66
2021/11/07 00:32:47;;;;;;;110.35;50.50;;;;;;;14.17;100.00;100935.09;5045733;28;20037;-66
2021/11/07 00:37:59;;;;;;;104.80;48.65;;;;;;;14.00;100.00;100928.81;5077632;28;20040;-69
2021/11/07 00:43:08;;;;;;;107.10;50.15;;;;;;;14.27;100.00;100928.66;5077593;28;20047;-66
2021/11/07 00:51:10;;;;;;;116.50;48.58;;;;;;;13.96;100.00;100922.97;5078663;28;20039;-69
2021/11/07 01:01:39;;;;;;;107.88;47.78;;;;;;;14.07;100.00;100924.53;5078044;28;20216;-69
2021/11/07 01:04:06;;;;;;;111.70;47.80;;;;;;;14.05;100.00;100924.69;5077329;28;20078;-68
2021/11/07 01:06:32;;;;;;;113.90;51.92;;;;;;;14.02;100.00;100922.34;5076803;28;20091;-66
2021/11/07 01:09:00;;;;;;;123.82;51.65;;;;;;;14.14;100.00;100922.09;5078018;28;20044;-66
2021/11/07 01:11:25;;;;;;;115.90;51.55;;;;;;;14.11;100.00;100911.75;5077688;28;20035;-69
2021/11/07 01:13:51;;;;;;;115.72;51.40;;;;;;;14.27;100.00;100919.84;5077163;28;20064;-69
2021/11/07 01:16:17;;;;;;;108.68;48.63;;;;;;;14.43;100.00;100919.13;5078559;28;20028;-66
2021/11/07 01:18:43;;;;;;;108.63;49.10;;;;;;;14.29;100.00;100921.34;5077023;28;20220;-68
2021/11/07 01:21:12;;;;;;;108.20;47.00;;;;;;;14.17;100.00;100921.78;5076791;28;20282;-69
2021/11/07 01:23:46;;;;;;;103.03;48.30;;;;;;;14.14;100.00;100916.75;5077611;28;20054;-68
2021/11/07 01:26:36;;;;;;;;;;;;;;;14.10;100.00;100910.91;5076786;28;20318;-66
2021/11/07 01:29:10;;;;;;;121.47;47.33;;;;;;;14.37;100.00;100912.56;5076116;28;19932;-69
2021/11/07 01:31:36;;;;;;;110.18;47.70;;;;;;;14.43;100.00;100917.31;5076349;28;21843;-66
2021/11/07 01:34:03;;;;;;;105.55;47.72;;;;;;;14.39;100.00;100919.41;5076953;28;20036;-66
2021/11/07 01:36:38;;;;;;;105.35;48.15;;;;;;;14.36;100.00;100908.25;5077900;28;20036;-68
2021/11/07 01:39:10;;;;;;;105.78;45.95;;;;;;;14.23;100.00;100889.19;5076433;28;20052;-66
2021/11/07 01:41:45;;;;;;;96.40;44.65;;;;;;;14.35;100.00;100906.56;5076895;28;20040;-66
2021/11/07 01:44:11;;;;;;;100.68;45.17;;;;;;;14.23;100.00;100907.84;5074083;28;20032;-69
2021/11/07 01:46:41;;;;;;;103.63;45.45;;;;;;;14.18;100.00;100894.97;5077730;28;20223;-69
2021/11/07 01:49:20;;;;;;;101.00;45.15;;;;;;;14.31;100.00;100902.56;5078384;28;20037;-66
2021/11/07 01:51:56;;;;;;;95.97;44.53;;;;;;;14.37;100.00;100901.91;5077643;28;20249;-66
2021/11/07 01:56:48;;;;;;;90.70;42.90;;;;;;;14.61;100.00;100895.94;5076711;28;20021;-69
2021/11/07 01:59:13;;;;;;;91.00;44.08;;;;;;;14.76;100.00;100891.66;5077970;28;20038;-69
2021/11/07 02:01:39;;;;;;;83.60;42.63;;;;;;;14.90;100.00;100887.53;5077135;28;20322;-66
2021/11/07 02:04:05;;;;;;;88.80;41.40;;;;;;;14.87;100.00;100883.38;5077680;28;20031;-67
2021/11/07 02:06:30;;;;;;;98.20;41.22;;;;;;;15.09;100.00;100886.41;5076487;28;20028;-66
2021/11/07 02:08:56;;;;;;;87.93;41.75;;;;;;;15.22;100.00;100887.63;5076419;28;20112;-64
2021/11/07 02:11:22;;;;;;;86.20;40.88;;;;;;;15.22;100.00;100881.44;5077402;28;20029;-64
2021/11/07 02:13:49;;;;;;;86.07;40.80;;;;;;;15.39;100.00;100880.47;5076414;28;20085;-66
2021/11/07 02:16:18;;;;;;;80.38;39.20;;;;;;;15.36;100.00;100886.13;5073495;28;20024;-64
2021/11/07 02:18:45;;;;;;;87.53;40.10;;;;;;;15.37;100.00;100886.97;5076965;28;20021;-66
2021/11/07 02:21:11;;;;;;;78.97;39.15;;;;;;;15.37;100.00;100881.63;5076911;28;20054;-63
2021/11/07 02:23:37;;;;;;;88.38;39.45;;;;;;;15.49;100.00;100878.47;5076403;28;20048;-66
2021/11/07 02:26:04;;;;;;;79.70;38.63;;;;;;;15.63;100.00;100879.69;5076516;28;20047;-67
2021/11/07 02:28:39;;;;;;;76.28;37.85;;;;;;;15.65;100.00;100883.03;5076598;28;20482;-67
2021/11/07 02:31:07;;;;;;;78.20;39.55;;;;;;;15.59;100.00;100884.50;5076093;28;20098;-64
2021/11/07 02:33:33;;;;;;;81.53;39.53;;;;;;;15.64;100.00;100876.88;5080441;28;20075;-66
2021/11/07 02:36:10;;;;;;;74.80;36.10;;;;;;;15.69;100.00;100876.34;5080175;28;20074;-66
2021/11/07 02:38:36;;;;;;;77.10;38.67;;;;;;;15.71;99.96;100863.69;5079875;28;20226;-64
2021/11/07 02:41:03;;;;;;;75.25;36.58;;;;;;;15.74;99.75;100871.34;5079643;28;20070;-64
2021/11/07 02:43:28;;;;;;;69.25;35.55;;;;;;;15.76;98.99;100877.34;5078791;28;20300;-66
2021/11/07 02:45:54;;;;;;;77.28;37.08;;;;;;;15.72;98.97;100867.19;5079610;28;20052;-66
2021/11/07 02:48:19;;;;;;;71.43;37.13;;;;;;;15.85;97.92;100871.00;5079703;28;20379;-64
2021/11/07 02:50:45;;;;;;;68.70;36.78;;;;;;;15.86;97.90;100874.50;5080755;28;20048;-64
2021/11/07 02:53:10;;;;;;;73.25;37.85;;;;;;;15.74;98.71;100873.19;5079562;28;20035;-64
2021/11/07 02:55:36;;;;;;;71.80;35.58;;;;;;;15.79;98.46;100876.19;5080110;28;20044;-67
2021/11/07 02:58:02;;;;;;;67.22;36.38;;;;;;;15.84;97.20;100868.50;5079050;28;20036;-63
2021/11/07 03:00:31;;;;;;;83.18;39.00;;;;;;;15.86;97.60;100871.84;5079797;28;20042;-64
2021/11/07 03:02:58;;;;;;;83.20;38.10;;;;;;;15.91;96.69;100870.31;5079949;28;20036;-64
2021/11/07 03:05:23;;;;;;;71.78;35.40;;;;;;;15.81;97.46;100876.84;5081150;28;20103;-64
2021/11/07 03:07:49;;;;;;;74.30;35.47;;;;;;;15.79;97.55;100878.84;5079275;28;20094;-66
2021/11/07 03:10:17;;;;;;;75.80;36.03;;;;;;;15.83;97.28;100867.66;5079567;28;20109;-64
2021/11/07 03:12:43;;;;;;;69.85;35.53;;;;;;;15.86;96.88;100869.16;5080554;28;20074;-67
2021/11/07 03:15:12;;;;;;;70.47;37.30;;;;;;;15.84;96.53;100872.00;5078567;28;20381;-64
2021/11/07 03:17:38;;;;;;;73.75;34.83;;;;;;;15.88;95.94;100864.50;5079115;28;20076;-67
2021/11/07 03:20:06;;;;;;;66.78;34.67;;;;;;;15.94;96.09;100864.66;5080251;28;20040;-64
2021/11/07 03:22:32;;;;;;;68.90;35.53;;;;;;;15.80;97.12;100872.50;5078719;28;20290;-64
2021/11/07 03:24:58;;;;;;;72.40;35.90;;;;;;;15.84;96.24;100872.00;5078453;28;20043;-64
2021/11/07 03:27:34;;;;;;;67.97;35.63;;;;;;;15.69;97.39;100871.03;5080209;28;20043;-63
2021/11/07 03:30:05;;;;;;;71.18;34.92;;;;;;;15.61;97.91;100871.84;5079333;28;20041;-66
2021/11/07 03:32:34;;;;;;;72.43;37.70;;;;;;;15.67;97.28;100872.19;5078901;28;20032;-66
2021/11/07 03:35:05;;;;;;;72.43;36.58;;;;;;;15.51;98.43;100859.63;5078489;28;20032;-64
2021/11/07 03:37:37;;;;;;;82.80;38.55;;;;;;;15.62;97.86;100864.69;5079674;28;20099;-67
2021/11/07 03:40:08;;;;;;;75.68;36.17;;;;;;;15.66;97.61;100865.19;5079317;28;20242;-64
2021/11/07 03:42:34;;;;;;;71.40;35.75;;;;;;;15.63;97.62;100856.50;5078408;28;20413;-64
2021/11/07 03:45:00;;;;;;;74.25;37.30;;;;;;;15.59;98.58;100860.47;5078671;28;20044;-67
2021/11/07 03:47:25;;;;;;;70.25;35.85;;;;;;;15.75;96.84;100866.84;5079719;28;20040;-63
2021/11/07 03:49:52;;;;;;;73.35;36.95;;;;;;;15.63;97.48;100871.69;5078370;28;20044;-66
2021/11/07 03:52:18;;;;;;;75.85;38.00;;;;;;;15.62;97.91;100870.03;5077438;28;20040;-64
2021/11/07 03:54:44;;;;;;;70.03;37.90;;;;;;;15.52;98.60;100871.97;5078830;28;20111;-67
2021/11/07 03:57:11;;;;;;;76.85;37.75;;;;;;;15.47;99.06;100871.63;5078427;28;20032;-66
2021/11/07 03:59:39;;;;;;;77.43;39.30;;;;;;;15.37;99.64;100877.13;5079119;28;20054;-63
2021/11/07 04:02:05;;;;;;;84.63;39.47;;;;;;;15.45;99.10;100870.97;5078178;28;20041;-64
2021/11/07 04:04:30;;;;;;;76.63;39.65;;;;;;;15.33;100.00;100867.78;5078205;28;20043;-64
2021/11/07 04:06:56;;;;;;;80.63;40.33;;;;;;;15.48;98.62;100868.78;5079114;28;20381;-67
2021/11/07 04:09:21;;;;;;;91.70;41.92;;;;;;;15.15;100.00;100859.09;5078030;28;20048;-67
2021/11/07 04:11:47;;;;;;;89.00;42.92;;;;;;;14.98;100.00;100861.72;5078998;28;20041;-64
2021/11/07 04:14:13;;;;;;;91.68;44.10;;;;;;;15.23;100.00;100862.59;5077744;28;20281;-67
2021/11/07 04:16:39;;;;;;;89.80;43.17;;;;;;;15.13;100.00;100863.75;5078135;28;20024;-64
2021/11/07 04:19:06;;;;;;;91.85;42.92;;;;;;;15.18;100.00;100864.09;5078949;28;20082;-63
2021/11/07 04:21:32;;;;;;;93.28;44.60;;;;;;;15.21;100.00;100869.09;5077778;28;20036;-64
2021/11/07 04:23:57;;;;;;;85.13;43.38;;;;;;;15.12;100.00;100862.91;5077382;28;20043;-67
2021/11/07 04:26:23;;;;;;;92.82;44.08;;;;;;;15.22;100.00;100871.59;5078809;28;20047;-63
2021/11/07 04:28:50;;;;;;;96.25;43.13;;;;;;;15.25;100.00;100868.59;5077501;28;20032;-66
2021/11/07 04:31:16;;;;;;;95.30;45.05;;;;;;;15.26;100.00;100866.78;5078537;28;20036;-64
2021/11/07 04:33:42;;;;;;;87.70;44.10;;;;;;;15.32;100.00;100866.13;5077281;28;20028;-64
2021/11/07 04:36:08;;;;;;;96.70;44.75;;;;;;;15.28;100.00;100867.44;5077182;28;20094;-64
2021/11/07 04:38:35;;;;;;;90.80;44.70;;;;;;;15.40;100.00;100882.13;5078531;28;20046;-63
2021/11/07 04:41:01;;;;;;;85.00;43.55;;;;;;;15.48;100.00;100874.13;5077044;28;20055;-64
2021/11/07 04:43:26;;;;;;;87.75;43.05;;;;;;;15.57;99.56;100874.97;5077940;28;20047;-64
2021/11/07 04:45:52;;;;;;;92.50;44.92;;;;;;;15.69;98.11;100871.03;5078277;28;20040;-64
2021/11/07 04:48:19;;;;;;;80.07;41.80;;;;;;;15.63;98.64;100877.03;5077506;28;20048;-66
2021/11/07 04:50:46;;;;;;;80.80;41.08;;;;;;;15.64;98.08;100870.69;5074340;28;20039;-67
2021/11/07 04:53:13;;;;;;;88.00;43.13;;;;;;;15.51;98.65;100872.97;5077713;28;20268;-66
2021/11/07 04:55:41;;;;;;;95.15;43.80;;;;;;;15.44;99.15;100863.94;5076762;28;20035;-66
2021/11/07 04:58:08;;;;;;;89.78;44.05;;;;;;;15.47;99.98;100866.28;5077624;28;20190;-63
2021/11/07 05:00:34;;;;;;;90.40;43.70;;;;;;;15.55;99.19;100872.47;5078288;28;20052;-66
2021/11/07 05:03:04;;;;;;;84.07;42.40;;;;;;;15.69;98.30;100873.69;5077122;28;20059;-64
2021/11/07 05:05:31;;;;;;;86.22;43.90;;;;;;;15.69;98.19;100873.69;5077228;28;20035;-63
2021/11/07 05:07:57;;;;;;;89.40;42.90;;;;;;;15.66;98.17;100870.53;5078212;28;20025;-67
2021/11/07 05:10:24;;;;;;;80.68;42.17;;;;;;;15.68;97.92;100868.53;5077195;28;20060;-64
2021/11/07 05:12:49;;;;;;;86.18;42.55;;;;;;;15.72;97.44;100873.34;5077311;28;20075;-64
2021/11/07 05:15:15;;;;;;;93.20;44.45;;;;;;;15.58;98.63;100874.84;5078271;28;20028;-67
2021/11/07 05:17:41;;;;;;;95.35;47.33;;;;;;;15.38;100.00;100873.47;5077859;28;20029;-63
2021/11/07 05:20:07;;;;;;;97.72;46.50;;;;;;;15.34;100.00;100875.63;5076706;28;20036;-66
2021/11/07 05:22:33;;;;;;;95.25;45.10;;;;;;;15.33;100.00;100878.47;5078235;28;20046;-67
2021/11/07 05:24:58;;;;;;;102.25;47.20;;;;;;;15.39;100.00;100869.78;5076419;28;20059;-66
2021/11/07 05:27:24;;;;;;;108.50;47.65;;;;;;;15.29;100.00;100861.09;5110430;28;20032;-69
2021/11/07 05:29:49;;;;;;;106.70;48.70;;;;;;;15.31;100.00;100859.09;5074383;28;20218;-67
2021/11/07 05:32:15;;;;;;;108.85;51.47;;;;;;;15.27;100.00;100868.44;5075778;28;20031;-69
2021/11/07 05:34:41;;;;;;;114.05;50.90;;;;;;;15.05;100.00;100867.25;5077270;28;20079;-69
2021/11/07 05:37:08;;;;;;;112.47;51.30;;;;;;;15.10;100.00;100877.41;5077833;28;20048;-66
2021/11/07 05:39:33;;;;;;;117.18;51.42;;;;;;;15.10;100.00;100875.59;5076062;28;20036;-66
2021/11/07 05:41:59;;;;;;;123.18;53.10;;;;;;;15.12;100.00;100878.09;5078003;28;20035;-69
2021/11/07 05:44:24;;;;;;;122.13;57.10;;;;;;;14.99;100.00;100874.06;5076452;28;20044;-66
2021/11/07 05:46:50;;;;;;;121.22;57.75;;;;;;;14.79;100.00;100877.16;5077036;28;20322;-69
2021/11/07 05:49:17;;;;;;;129.38;57.40;;;;;;;14.84;100.00;100878.34;5077521;28;20333;-66
2021/11/07 05:51:42;;;;;;;131.50;57.28;;;;;;;14.69;100.00;100878.13;5076628;28;20047;-69
2021/11/07 05:54:08;;;;;;;137.88;61.00;;;;;;;14.66;100.00;100886.47;5076229;28;20044;-69
2021/11/07 05:56:33;;;;;;;145.13;62.90;;;;;;;14.51;100.00;100892.53;5077400;28;20044;-66
2021/11/07 05:58:59;;;;;;;148.88;66.57;;;;;;;14.67;100.00;100890.78;5076548;28;20048;-66
2021/11/07 06:01:25;;;;;;;152.48;68.05;;;;;;;14.66;100.00;100894.47;5077551;28;20087;-66
2021/11/07 06:03:51;;;;;;;134.10;60.70;;;;;;;14.56;100.00;100892.88;5076362;28;20037;-66
2021/11/07 06:06:17;;;;;;;134.63;59.58;;;;;;;14.38;100.00;100885.78;5076252;28;20033;-66
2021/11/07 06:08:43;;;;;;;132.23;55.80;;;;;;;14.30;100.00;100879.56;5081215;28;20050;-68
2021/11/07 06:11:08;;;;;;;128.40;55.33;;;;;;;14.23;100.00;100887.34;5079981;28;20064;-69
2021/11/07 06:13:34;;;;;;;121.88;53.85;;;;;;;14.16;100.00;100890.81;5080305;28;20013;-66
2021/11/07 06:16:01;;;;;;;129.65;57.05;;;;;;;14.09;100.00;100890.59;5080593;28;20047;-67
2021/11/07 06:18:27;;;;;;;128.65;54.72;;;;;;;14.25;100.00;100893.38;5080071;28;20062;-69
2021/11/07 06:20:52;;;;;;;132.82;54.78;;;;;;;14.26;100.00;100900.38;5080138;28;20024;-69
2021/11/07 06:23:18;;;;;;;126.60;55.20;;;;;;;14.32;100.00;100906.88;5080792;28;20043;-66
2021/11/07 06:25:44;;;;;;;127.10;54.63;;;;;;;14.48;100.00;100895.50;5079633;28;20047;-68
2021/11/07 06:28:10;;;;;;;128.75;54.30;;;;;;;14.50;100.00;100897.03;5081226;28;20033;-68
2021/11/07 06:30:36;;;;;;;125.60;52.95;;;;;;;14.24;100.00;100882.88;5080925;28;20036;-66
2021/11/07 06:33:02;;;;;;;125.70;52.95;;;;;;;14.38;100.00;100895.59;5079424;28;20040;-69
2021/11/07 06:35:27;;;;;;;124.57;51.72;;;;;;;14.23;100.00;100911.34;5079756;28;20048;-69
2021/11/07 06:37:54;;;;;;;130.68;55.08;;;;;;;14.43;100.00;100903.16;5080831;28;20020;-69
2021/11/07 06:40:19;;;;;;;129.93;53.97;;;;;;;14.26;100.00;100899.53;5079301;28;20037;-66
2021/11/07 06:42:45;;;;;;;130.20;53.95;;;;;;;14.23;100.00;100895.34;5079804;28;20335;-69
2021/11/07 06:45:11;;;;;;;121.20;51.47;;;;;;;14.28;100.00;100897.53;5080356;28;20040;-69
2021/11/07 06:47:37;;;;;;;120.13;50.42;;;;;;;14.32;100.00;100896.22;5079658;28;20024;-69
2021/11/07 06:50:04;;;;;;;123.95;50.28;;;;;;;14.49;100.00;100894.50;5080927;28;20060;-69
2021/11/07 06:52:30;;;;;;;114.82;49.47;;;;;;;14.58;100.00;100896.25;5079924;28;20032;-69
2021/11/07 06:54:55;;;;;;;122.80;50.42;;;;;;;14.54;100.00;100898.38;5078942;28;20032;-69
2021/11/07 06:57:21;;;;;;;125.95;52.35;;;;;;;14.60;100.00;100897.75;5080560;28;20040;-66
2021/11/07 06:59:47;;;;;;;134.13;52.53;;;;;;;14.50;100.00;100901.50;5079634;28;20012;-66
2021/11/07 07:02:13;;;;;;;121.15;51.50;;;;;;;14.37;100.00;100907.25;5079692;28;20302;-66
2021/11/07 07:04:39;;;;;;;132.25;52.95;;;;;;;14.48;100.00;100895.50;5080350;28;20066;-66
2021/11/07 07:07:05;;;;;;;127.65;51.55;;;;;;;14.35;100.00;100906.56;5079155;28;20025;-66
2021/11/07 07:09:38;;;;;;;127.43;52.08;;;;;;;14.05;100.00;100899.91;5080549;28;20101;-67
2021/11/07 07:12:41;;;;;;;122.60;52.73;;;;;;;13.99;100.00;100903.19;5080004;28;20037;-66
2021/11/07 07:17:33;;;;;;;120.53;52.08;;;;;;;14.35;100.00;100907.41;5080134;28;20025;-66
2021/11/07 07:23:09;;;;;;;115.72;49.97;;;;;;;14.29;100.00;100902.72;5079975;28;20341;-69
2021/11/07 07:28:39;;;;;;;105.22;45.85;;;;;;;14.26;100.00;100888.88;5062898;28;20040;-69
2021/11/07 07:34:09;;;;;;;119.68;48.08;;;;;;;14.27;100.00;100887.88;5076989;28;20034;-68
2021/11/07 07:36:34;;;;;;;110.18;47.60;;;;;;;14.28;100.00;100898.38;5077718;28;20021;-66
2021/11/07 07:39:00;;;;;;;122.68;47.92;;;;;;;14.70;100.00;100900.31;5079790;28;20214;-67
2021/11/07 07:41:26;;;;;;;112.50;46.88;;;;;;;14.82;100.00;100901.69;5078607;28;20109;-66
2021/11/07 07:43:52;;;;;;;106.63;44.92;;;;;;;14.56;100.00;100898.22;5078244;28;20056;-66
2021/11/07 07:46:20;;;;;;;106.03;47.22;;;;;;;14.58;100.00;100897.09;5078679;28;20063;-69
2021/11/07 07:48:46;;;;;;;108.55;47.90;;;;;;;14.65;100.00;100883.97;5078442;28;20024;-69
2021/11/07 07:51:16;;;;;;;108.43;47.40;;;;;;;14.94;100.00;100887.06;5078628;28;20209;-69
2021/11/07 07:53:42;;;;;;;88.43;41.22;;;;;;;15.00;100.00;100883.75;5078672;28;20033;-69
2021/11/07 07:56:09;;;;;;;105.15;44.70;;;;;;;15.23;100.00;100875.09;5077684;28;20062;-66
2021/11/07 07:58:37;;;;;;;86.68;40.00;;;;;;;15.01;100.00;100873.91;5111157;28;20082;-66
2021/11/07 08:01:04;;;;;;;84.90;37.33;;;;;;;14.84;100.00;100878.34;5079032;28;20059;-66
2021/11/07 08:03:30;;;;;;;80.60;36.85;;;;;;;14.93;100.00;100881.88;5079461;28;20028;-66
2021/11/07 08:05:56;;;;;;;82.00;38.13;;;;;;;15.08;100.00;100876.75;5077901;28;20020;-66
2021/11/07 08:08:21;;;;;;;84.32;38.20;;;;;;;15.08;100.00;100871.41;5077473;28;20024;-69
2021/11/07 08:10:47;;;;;;;76.22;35.90;;;;;;;14.95;100.00;100871.88;5078033;28;20037;-69
2021/11/07 08:13:13;;;;;;;80.75;34.83;;;;;;;14.89;100.00;100868.03;5078094;28;20039;-66
2021/11/07 08:15:38;;;;;;;79.38;35.50;;;;;;;14.87;100.00;100872.69;5074988;28;20032;-69
2021/11/07 08:18:04;;;;;;;71.47;34.13;;;;;;;15.23;100.00;100875.09;5078037;28;20165;-63
2021/11/07 08:20:30;;;;;;;77.18;34.72;;;;;;;15.04;100.00;100867.41;5078800;28;20116;-63
2021/11/07 08:22:56;;;;;;;72.20;34.78;;;;;;;14.90;100.00;100869.72;5078238;28;20044;-66
2021/11/07 08:25:22;;;;;;;79.15;35.00;;;;;;;15.18;100.00;100866.75;5077233;28;20040;-69
2021/11/07 08:27:59;;;;;;;72.70;35.70;;;;;;;15.14;100.00;100863.59;5078018;28;20043;-69
2021/11/07 08:30:26;;;;;;;84.13;38.55;;;;;;;15.21;100.00;100861.09;5073943;28;20043;-66
2021/11/07 08:32:52;;;;;;;72.60;34.13;;;;;;;15.20;100.00;100856.75;5077801;28;20103;-63
2021/11/07 08:35:17;;;;;;;76.10;34.80;;;;;;;15.19;100.00;100868.44;5077260;28;20322;-63
2021/11/07 08:37:54;;;;;;;61.30;28.23;;;;;;;15.02;100.00;100865.72;5078055;28;20103;-66
2021/11/07 08:40:27;;;;;;;59.50;28.45;;;;;;;15.28;100.00;100872.78;5078367;28;20049;-63
2021/11/07 08:43:08;;;;;;;59.63;28.55;;;;;;;15.44;100.00;100866.63;5077935;28;20063;-63
2021/11/07 09:04:32;;;;;;;54.55;27.52;;;;;;;16.35;93.73;100847.66;5077311;28;19928;-64
2021/11/07 09:07:02;;;;;;;44.37;21.80;;;;;;;16.30;93.03;100853.53;5073428;28;20043;-66
2021/11/07 09:09:32;;;;;;;49.15;25.70;;;;;;;16.44;92.60;100847.47;5077149;28;20028;-66
2021/11/07 09:12:00;;;;;;;55.55;27.92;;;;;;;16.63;92.64;100838.19;5076601;28;20314;-64
2021/11/07 09:14:30;;;;;;;52.13;26.58;;;;;;;16.41;93.00;100837.13;5077877;28;20096;-67
2021/11/07 09:16:57;;;;;;;44.35;23.17;;;;;;;16.31;93.04;100830.31;5077996;28;20026;-64
2021/11/07 09:19:24;;;;;;;47.53;23.30;;;;;;;16.36;91.46;100831.47;5078361;28;20095;-64
2021/11/07 09:21:53;;;;;;;41.88;22.35;;;;;;;16.23;91.44;100832.00;5076831;28;20040;-63
2021/11/07 09:24:54;;;;;;;37.05;20.25;;;;;;;16.32;92.45;100822.13;5076527;28;20103;-64
2021/11/07 09:30:16;;;;;;;41.33;20.58;;;;;;;16.17;90.45;100810.50;5061019;28;20063;-64
2021/11/07 09:40:07;;;;;;;38.67;20.83;;;;;;;16.15;91.77;100783.09;5077696;28;20392;-64
2021/11/07 09:45:12;;;;;;;40.92;22.55;;;;;;;16.32;91.83;100771.34;5081055;28;20095;-66
2021/11/07 09:47:40;;;;;;;42.22;23.13;;;;;;;16.48;90.78;100763.25;5077704;28;20029;-66
2021/11/07 09:50:10;;;;;;;41.53;22.15;;;;;;;16.54;89.00;100759.84;5081928;28;20085;-63
2021/11/07 09:52:43;;;;;;;44.83;21.13;;;;;;;16.65;89.40;100756.03;5080274;28;20028;-67
2021/11/07 09:55:09;;;;;;;41.20;20.70;;;;;;;16.71;87.22;100754.47;5082382;28;20151;-64
2021/11/07 09:57:36;;;;;;;34.95;18.95;;;;;;;16.72;87.82;100750.78;5080843;28;20228;-64
2021/11/07 10:00:09;;;;;;;34.00;18.75;;;;;;;16.87;84.60;100744.50;5080948;28;20029;-64
2021/11/07 10:02:34;;;;;;;32.83;18.88;;;;;;;16.86;84.82;100744.66;5081570;28;20229;-66
2021/11/07 10:05:02;;;;;;;31.60;18.67;;;;;;;16.94;84.16;100739.25;5080656;28;21626;-63
2021/11/07 10:07:33;;;;;;;34.83;19.02;;;;;;;16.77;84.55;100719.81;5080257;28;20099;-64
2021/11/07 10:10:04;;;;;;;33.08;18.45;;;;;;;17.04;83.48;100733.66;5081528;28;20051;-64
2021/11/07 10:12:44;;;;;;;32.13;18.83;;;;;;;17.10;83.81;100722.25;5079393;28;20036;-64
2021/11/07 10:15:27;;;;;;;35.63;20.10;;;;;;;17.16;83.58;100721.50;5080195;28;20036;-64
2021/11/07 10:18:07;;;;;;;36.08;19.10;;;;;;;16.99;82.76;100717.31;5080412;28;20025;-63
2021/11/07 10:20:42;;;;;;;40.88;20.85;;;;;;;16.83;84.84;100710.25;5080165;28;20033;-64
2021/11/07 10:23:27;;;;;;;37.60;20.73;;;;;;;16.78;84.26;100707.28;5078777;28;20206;-67
2021/11/07 10:31:31;;;;;;;31.73;18.98;;;;;;;17.21;81.88;100705.75;5079823;28;20032;-64
2021/11/07 10:37:09;;;;;;;29.17;17.15;;;;;;;17.31;80.35;100692.09;5078175;28;20055;-65
2021/11/07 10:40:05;;;;;;;35.58;18.60;;;;;;;16.97;80.69;100679.22;5078232;28;20262;-67
2021/11/07 10:46:16;;;;;;;31.83;18.63;;;;;;;17.10;81.34;100677.59;5079472;28;20095;-67
2021/11/07 10:53:27;;;;;;;37.10;19.08;;;;;;;17.29;78.52;100660.16;5078921;28;20031;-65
2021/11/07 10:55:54;;;;;;;34.22;19.05;;;;;;;17.42;78.08;100646.13;5078777;28;20104;-65
2021/11/07 10:58:33;;;;;;;33.00;19.48;;;;;;;17.05;79.90;100647.84;5083578;28;20059;-68
2021/11/07 11:01:01;;;;;;;34.30;19.85;;;;;;;17.04;80.53;100646.19;5083083;28;20051;-67
2021/11/07 11:03:26;;;;;;;30.92;18.05;;;;;;;17.28;79.73;100636.25;5083060;28;20033;-65
2021/11/07 11:06:13;;;;;;;34.10;20.08;;;;;;;17.01;81.29;100633.19;5081884;28;20040;-67
2021/11/07 11:09:00;;;;;;;35.22;20.35;;;;;;;16.82;81.59;100623.00;5083377;28;20024;-67
2021/11/07 11:11:55;;;;;;;37.15;20.80;;;;;;;17.04;81.49;100621.28;5082737;28;20240;-67
2021/11/07 11:14:31;;;;;;;36.65;20.35;;;;;;;16.71;81.24;100612.75;5083353;28;20033;-67
2021/11/07 11:17:10;;;;;;;38.70;21.40;;;;;;;16.79;81.21;100612.66;5083243;28;20040;-64
2021/11/07 11:27:41;;;;;;;43.78;22.90;;;;;;;16.82;81.72;100597.09;5083147;28;20249;-68
2021/11/07 11:30:34;;;;;;;42.42;22.83;;;;;;;16.95;80.79;100590.28;5082835;28;20318;-64
2021/11/07 11:33:12;;;;;;;42.58;23.20;;;;;;;16.75;82.11;100577.44;5082436;28;20028;-65
2021/11/07 11:38:31;;;;;;;43.75;24.17;;;;;;;17.02;81.53;100578.66;5082603;28;20040;-65
2021/11/07 11:41:44;;;;;;;39.30;23.15;;;;;;;17.11;80.69;100577.56;5081010;28;20044;-65
2021/11/07 11:43:49;;;;;;;43.75;25.65;;;;;;;17.08;81.00;100577.09;5071844;28;20044;-65
2021/11/07 11:46:47;;;;;;;41.60;23.50;;;;;;;17.24;80.82;100574.22;5082336;28;20043;-67
2021/11/07 11:57:52;;;;;;;44.92;23.67;;;;;;;17.46;79.71;100562.59;5082365;28;20060;-65
2021/11/07 12:00:34;;;;;;;46.20;25.65;;;;;;;17.40;81.37;100554.47;5080967;28;20033;-65
2021/11/07 12:03:09;;;;;;;39.80;23.33;;;;;;;17.49;79.80;100548.81;5081986;28;20273;-67
2021/11/07 12:06:00;;;;;;;41.63;23.02;;;;;;;17.48;80.08;100543.66;5080496;28;20028;-68
2021/11/07 12:08:36;;;;;;;42.22;23.52;;;;;;;17.57;79.12;100531.81;5082202;28;20050;-67
2021/11/07 12:11:35;;;;;;;40.35;22.92;;;;;;;17.62;79.40;100532.06;5081694;28;20217;-68
2021/11/07 12:14:17;;;;;;;44.70;25.25;;;;;;;17.47;79.52;100532.13;5081570;28;20037;-67
2021/11/07 12:16:49;;;;;;;41.50;24.90;;;;;;;17.59;79.38;100527.09;5082013;28;20032;-65
2021/11/07 12:19:17;;;;;;;41.03;24.58;;;;;;;17.53;78.98;100536.72;5081538;28;20044;-67
2021/11/07 12:21:49;;;;;;;45.30;23.90;;;;;;;17.38;80.03;100524.38;5082068;28;20321;-67
2021/11/07 12:24:34;;;;;;;44.53;25.35;;;;;;;17.23;80.80;100519.88;5080727;28;20158;-65
2021/11/07 12:27:26;;;;;;;40.47;24.17;;;;;;;17.47;80.08;100517.91;5078945;28;20032;-65
2021/11/07 12:29:58;;;;;;;41.42;24.52;;;;;;;17.48;79.26;100514.19;5081979;28;20112;-64
2021/11/07 12:32:36;;;;;;;42.70;24.60;;;;;;;17.55;78.41;100512.44;5081718;28;20037;-65
2021/11/07 12:40:39;;;;;;;40.10;24.30;;;;;;;17.68;77.32;100507.25;5081556;28;20035;-65
2021/11/07 12:43:13;;;;;;;45.47;25.48;;;;;;;17.61;78.76;100500.13;5081567;28;20078;-65
2021/11/07 12:45:44;;;;;;;46.65;26.02;;;;;;;17.49;79.12;100505.16;5081566;28;20353;-68
2021/11/07 12:48:12;;;;;;;46.33;27.05;;;;;;;17.43;79.86;100504.06;5081323;28;20032;-65
2021/11/07 12:50:58;;;;;;;50.45;26.77;;;;;;;17.34;80.61;100504.34;5081268;28;20024;-67
2021/11/07 12:53:29;;;;;;;44.92;26.17;;;;;;;17.17;81.27;100490.34;5080881;28;20032;-65
2021/11/07 12:55:55;;;;;;;44.92;26.08;;;;;;;17.20;81.11;100498.84;5080463;28;20039;-65
2021/11/07 12:58:21;;;;;;;44.08;26.35;;;;;;;17.05;81.73;100489.16;5081399;28;20482;-67
2021/11/07 13:00:48;;;;;;;50.17;26.95;;;;;;;17.20;80.53;100488.13;5081593;28;20064;-65
2021/11/07 13:03:15;;;;;;;45.70;25.17;;;;;;;17.48;78.70;100485.56;5080821;28;20028;-65
2021/11/07 13:05:42;;;;;;;47.92;26.02;;;;;;;17.23;79.72;100479.72;5080957;28;20103;-66
2021/11/07 13:08:18;;;;;;;51.40;27.95;;;;;;;17.29;79.41;100490.69;5080980;28;20033;-65
2021/11/07 13:10:56;;;;;;;46.25;26.85;;;;;;;17.08;80.46;100488.78;5081198;28;20032;-68